LTAY/DNZ METAR and TAF weather

Enter ICAO airport designator
Station Type Date Time Source
LTAY METAR 2021/01/22 06:50 UTC NOAA

LTAY 220650Z 07008KT CAVOK M02/M04 Q1029


Station Type Date Time Source
LTAY Decoded METAR 2021/01/22 06:50 UTC NOAA

Cardak, Turkey (LTAY) 37-47N 029-42E
Jan 22, 2021 - 01:50 AM EST / 2021.01.22 0650 UTC
Wind: from the ENE (070 degrees) at 9 MPH (8 KT):0
Visibility: greater than 7 mile(s):0
Temperature: 28 F (-2 C)
Windchill: 19 F (-7 C):1
Dew Point: 24 F (-4 C)
Relative Humidity: 86%
Pressure (altimeter): 30.39 in. Hg (1029 hPa)
ob: LTAY 220650Z 07008KT CAVOK M02/M04 Q1029
cycle: 7

Station Type Date Time Source
LTAY TAF UTC NOAA

Error!

Example: see airport list